createdAt,value
2018-12-17T00:01:20.219Z,15.00
2018-12-17T00:03:48.445Z,14.37
2018-12-17T00:06:16.669Z,13.67
2018-12-17T00:08:45.207Z,14.17
2018-12-17T00:11:13.537Z,16.43
2018-12-17T00:13:41.750Z,13.63
2018-12-17T00:16:09.916Z,14.17
2018-12-17T00:18:38.072Z,13.70
2018-12-17T00:21:07.546Z,13.70
2018-12-17T00:23:36.232Z,16.93
2018-12-17T00:26:04.519Z,21.07
2018-12-17T00:28:32.768Z,29.13
2018-12-17T00:31:00.984Z,18.43
2018-12-17T00:33:29.543Z,17.73
2018-12-17T00:35:57.793Z,30.13
2018-12-17T00:38:26.436Z,20.40
2018-12-17T00:40:54.993Z,15.73
2018-12-17T00:43:23.430Z,15.20
2018-12-17T00:45:52.382Z,15.40
2018-12-17T00:48:21.029Z,32.37
2018-12-17T00:50:49.255Z,35.17
2018-12-17T00:53:17.453Z,32.50
2018-12-17T00:55:45.729Z,16.83
2018-12-17T00:58:15.285Z,19.17
2018-12-17T01:00:43.796Z,17.27
2018-12-17T01:03:12.127Z,16.57
2018-12-17T01:05:40.359Z,16.63
2018-12-17T01:08:08.749Z,16.60
2018-12-17T01:10:37.026Z,14.60
2018-12-17T01:13:05.208Z,16.30
2018-12-17T01:15:33.368Z,16.83
2018-12-17T01:18:01.607Z,14.00
2018-12-17T01:20:30.663Z,16.63
2018-12-17T01:22:58.881Z,16.17
2018-12-17T01:25:27.182Z,13.43
2018-12-17T01:27:55.407Z,16.53
2018-12-17T01:30:23.600Z,14.97
2018-12-17T01:32:51.793Z,14.47
2018-12-17T01:35:20.005Z,15.03
2018-12-17T01:37:48.200Z,15.87
2018-12-17T01:40:16.552Z,17.17
2018-12-17T01:42:44.896Z,15.70
2018-12-17T01:45:13.159Z,18.27
2018-12-17T01:47:41.384Z,20.73
2018-12-17T01:50:09.628Z,19.60
2018-12-17T01:52:37.778Z,16.17
2018-12-17T01:55:06.101Z,20.07
2018-12-17T01:57:34.469Z,20.00
2018-12-17T02:00:02.807Z,16.77
2018-12-17T02:02:30.998Z,17.27
2018-12-17T02:04:59.331Z,16.83
2018-12-17T02:07:27.673Z,19.50
2018-12-17T02:09:56.176Z,15.80
2018-12-17T02:12:24.364Z,25.03
2018-12-17T02:14:52.574Z,15.63
2018-12-17T02:17:20.738Z,20.53
2018-12-17T02:19:49.644Z,18.23
2018-12-17T02:22:17.916Z,28.73
2018-12-17T02:24:46.124Z,29.23
2018-12-17T02:27:14.294Z,18.03
2018-12-17T02:29:42.570Z,16.07
2018-12-17T02:32:10.746Z,21.23
2018-12-17T02:34:39.945Z,15.90
2018-12-17T02:37:08.144Z,17.27
2018-12-17T02:39:36.406Z,16.60
2018-12-17T02:42:04.706Z,16.53
2018-12-17T02:44:32.877Z,16.40
2018-12-17T02:47:01.320Z,15.70
2018-12-17T02:49:29.865Z,15.90
2018-12-17T02:51:58.120Z,15.17
2018-12-17T02:54:26.305Z,15.73
2018-12-17T02:56:54.501Z,16.43
2018-12-17T02:59:22.714Z,15.97
2018-12-17T03:01:50.898Z,15.57
2018-12-17T03:04:19.078Z,14.83
2018-12-17T03:06:47.325Z,15.33
2018-12-17T03:09:15.533Z,13.93
2018-12-17T03:11:44.082Z,13.97
2018-12-17T03:14:12.335Z,13.63
2018-12-17T03:16:40.540Z,13.90
2018-12-17T03:19:08.771Z,16.90
2018-12-17T03:21:37.066Z,17.37
2018-12-17T03:24:05.478Z,18.90
2018-12-17T03:26:33.676Z,33.47
2018-12-17T03:29:01.907Z,22.57
2018-12-17T03:31:31.183Z,28.00
2018-12-17T03:33:59.581Z,28.97
2018-12-17T03:36:28.077Z,22.07
2018-12-17T03:38:56.267Z,22.63
2018-12-17T03:41:24.446Z,18.63
2018-12-17T03:43:52.754Z,17.30
2018-12-17T03:46:21.022Z,16.13
2018-12-17T03:48:49.680Z,16.50
2018-12-17T03:51:17.895Z,16.07
2018-12-17T03:53:46.223Z,14.53
2018-12-17T03:56:14.458Z,16.07
2018-12-17T03:58:43.465Z,14.63
2018-12-17T04:01:12.066Z,14.67
2018-12-17T04:03:40.281Z,13.97
2018-12-17T04:06:21.492Z,20.63
2018-12-17T04:08:49.640Z,13.03
2018-12-17T04:11:17.905Z,22.97
2018-12-17T04:13:46.097Z,20.37
2018-12-17T04:16:14.265Z,20.87
2018-12-17T04:18:42.543Z,15.63
2018-12-17T04:21:10.698Z,12.00
2018-12-17T04:23:38.875Z,11.70
2018-12-17T04:26:07.071Z,13.33
2018-12-17T04:28:35.202Z,13.47
2018-12-17T04:31:03.685Z,12.93
2018-12-17T04:33:31.902Z,9.60
2018-12-17T04:36:00.054Z,10.00
2018-12-17T04:38:28.205Z,11.90
2018-12-17T04:40:56.412Z,11.30
2018-12-17T04:43:24.960Z,11.80
2018-12-17T04:45:53.184Z,11.33
2018-12-17T04:48:21.327Z,11.73
2018-12-17T04:50:49.506Z,11.60
2018-12-17T04:53:17.651Z,10.00
2018-12-17T04:55:45.870Z,12.20
2018-12-17T04:58:14.031Z,9.73
2018-12-17T05:00:42.266Z,11.53
2018-12-17T05:03:10.479Z,10.37
2018-12-17T05:05:38.638Z,9.87
2018-12-17T05:08:07.846Z,9.67
2018-12-17T05:10:36.128Z,10.20
2018-12-17T05:13:04.404Z,9.10
2018-12-17T05:15:32.570Z,8.90
2018-12-17T05:18:00.737Z,8.97
2018-12-17T05:20:29.174Z,7.97
2018-12-17T05:22:57.304Z,8.33
2018-12-17T05:25:25.455Z,8.93
2018-12-17T05:27:53.579Z,9.37
2018-12-17T05:30:21.810Z,8.47
2018-12-17T05:32:50.266Z,9.60
2018-12-17T05:35:18.463Z,8.90
2018-12-17T05:37:46.643Z,9.80
2018-12-17T05:40:14.826Z,9.37
2018-12-17T05:42:42.955Z,10.10
2018-12-17T05:45:11.443Z,10.17
2018-12-17T05:47:39.583Z,11.10
2018-12-17T05:50:07.887Z,14.30
2018-12-17T05:52:36.028Z,10.67
2018-12-17T05:55:04.791Z,11.63
2018-12-17T05:57:33.953Z,9.63
2018-12-17T06:00:02.339Z,10.70
2018-12-17T06:02:30.534Z,12.50
2018-12-17T06:04:58.704Z,9.40
2018-12-17T06:07:26.889Z,10.53
2018-12-17T06:09:55.319Z,10.50
2018-12-17T06:12:23.449Z,9.60
2018-12-17T06:14:51.594Z,8.90
2018-12-17T06:17:19.773Z,8.60
2018-12-17T06:19:47.899Z,8.70
2018-12-17T06:22:16.056Z,9.93
2018-12-17T06:24:44.186Z,8.37
2018-12-17T06:27:12.353Z,8.50
2018-12-17T06:29:40.575Z,7.87
2018-12-17T06:32:08.717Z,8.70
2018-12-17T06:34:36.944Z,10.40
2018-12-17T06:37:05.076Z,9.53
2018-12-17T06:39:33.207Z,10.77
2018-12-17T06:42:01.354Z,8.87
2018-12-17T06:44:29.646Z,9.70
2018-12-17T06:46:58.597Z,9.43
2018-12-17T06:49:26.742Z,9.60
2018-12-17T06:51:55.257Z,8.53
2018-12-17T06:54:23.699Z,8.87
2018-12-17T06:56:51.835Z,8.07
2018-12-17T06:59:22.993Z,8.53
2018-12-17T07:01:51.184Z,8.37
2018-12-17T07:04:19.357Z,7.23
2018-12-17T07:06:47.550Z,8.53
2018-12-17T07:09:15.685Z,7.93
2018-12-17T07:11:45.082Z,8.57
2018-12-17T07:14:13.706Z,9.33
2018-12-17T07:16:41.853Z,8.03
2018-12-17T07:19:09.998Z,8.23
2018-12-17T07:21:38.120Z,7.63
2018-12-17T07:24:06.708Z,7.50
2018-12-17T07:26:34.880Z,8.47
2018-12-17T07:29:03.095Z,8.13
2018-12-17T07:31:31.239Z,9.23
2018-12-17T07:33:59.487Z,11.30
2018-12-17T07:36:28.503Z,10.60
2018-12-17T07:38:56.644Z,8.70
2018-12-17T07:41:25.028Z,9.13
2018-12-17T07:43:53.294Z,7.53
2018-12-17T07:46:21.484Z,9.30
2018-12-17T07:48:49.864Z,7.07
2018-12-17T07:51:18.081Z,7.70
2018-12-17T07:53:46.204Z,7.73
2018-12-17T07:56:14.379Z,7.23
2018-12-17T07:58:42.596Z,7.50
2018-12-17T08:01:10.980Z,7.67
2018-12-17T08:03:39.099Z,7.17
2018-12-17T08:06:07.279Z,7.30
2018-12-17T08:08:35.778Z,6.90
2018-12-17T08:11:04.037Z,6.93
2018-12-17T08:13:32.533Z,6.67
2018-12-17T08:16:01.553Z,7.23
2018-12-17T08:18:29.689Z,7.77
2018-12-17T08:20:57.973Z,6.70
2018-12-17T08:23:26.104Z,7.53
2018-12-17T08:25:54.577Z,6.53
2018-12-17T08:28:22.790Z,6.67
2018-12-17T08:30:50.998Z,7.03
2018-12-17T08:33:19.168Z,6.27
2018-12-17T08:35:47.505Z,6.20
2018-12-17T08:38:16.025Z,7.67
2018-12-17T08:40:44.982Z,7.70
2018-12-17T08:43:13.156Z,6.50
2018-12-17T08:45:41.340Z,9.80
2018-12-17T08:48:11.111Z,9.60
2018-12-17T08:50:39.272Z,8.90
2018-12-17T08:53:07.497Z,7.80
2018-12-17T08:55:36.133Z,8.20
2018-12-17T08:58:04.565Z,8.73
2018-12-17T09:00:32.729Z,8.03
2018-12-17T09:03:00.958Z,9.10
2018-12-17T09:05:29.100Z,9.07
2018-12-17T09:07:57.231Z,8.60
2018-12-17T09:10:25.803Z,8.63
2018-12-17T09:12:53.951Z,7.63
2018-12-17T09:15:22.278Z,8.33
2018-12-17T09:17:50.463Z,9.73
2018-12-17T09:20:18.734Z,9.27
2018-12-17T09:22:48.454Z,9.53
2018-12-17T09:25:16.603Z,9.37
2018-12-17T09:27:44.777Z,8.57
2018-12-17T09:30:18.231Z,8.77
2018-12-17T09:32:43.147Z,8.73
2018-12-17T09:35:12.346Z,8.10
2018-12-17T09:37:40.831Z,9.73
2018-12-17T09:40:09.221Z,8.17
2018-12-17T09:42:37.357Z,9.33
2018-12-17T09:45:07.383Z,9.17
2018-12-17T09:47:35.607Z,11.30
2018-12-17T09:50:04.160Z,9.57
2018-12-17T09:52:32.398Z,7.77
2018-12-17T09:55:00.635Z,10.73
2018-12-17T09:57:28.764Z,13.50
2018-12-17T09:59:57.358Z,13.17
2018-12-17T10:02:25.499Z,10.53
2018-12-17T10:04:53.723Z,7.53
2018-12-17T10:07:22.180Z,8.47
2018-12-17T10:09:50.319Z,9.30
2018-12-17T10:12:18.454Z,10.07
2018-12-17T10:14:47.111Z,8.13
2018-12-17T10:17:15.243Z,9.73
2018-12-17T10:19:43.482Z,8.67
2018-12-17T10:22:12.049Z,8.03
2018-12-17T10:24:40.260Z,8.40
2018-12-17T10:27:08.426Z,9.10
2018-12-17T10:29:37.389Z,7.73
2018-12-17T10:32:05.604Z,8.03
2018-12-17T10:34:33.777Z,7.00
2018-12-17T10:37:02.001Z,7.37
2018-12-17T10:39:30.215Z,6.07
2018-12-17T10:41:58.407Z,5.07
2018-12-17T10:44:28.073Z,5.63
2018-12-17T10:46:56.639Z,5.23
2018-12-17T10:49:24.822Z,5.00
2018-12-17T10:51:53.339Z,5.10
2018-12-17T10:54:22.024Z,5.13
2018-12-17T10:56:50.217Z,5.17
2018-12-17T10:59:19.090Z,4.30
2018-12-17T11:01:59.314Z,4.60
2018-12-17T11:04:33.506Z,3.87
2018-12-17T11:07:01.910Z,4.23
2018-12-17T11:09:30.091Z,4.37
2018-12-17T11:11:58.331Z,4.00
2018-12-17T11:14:26.561Z,4.13
2018-12-17T11:16:54.925Z,4.53
2018-12-17T11:19:23.951Z,3.73
2018-12-17T11:21:52.207Z,4.40
2018-12-17T11:24:20.377Z,4.03
2018-12-17T11:26:48.523Z,4.87
2018-12-17T11:29:16.718Z,4.23
2018-12-17T11:31:44.891Z,4.20
2018-12-17T11:34:14.509Z,4.33
2018-12-17T11:36:42.676Z,4.40
2018-12-17T11:39:11.026Z,4.53
2018-12-17T11:41:40.113Z,4.20
2018-12-17T11:44:08.250Z,3.77
2018-12-17T11:46:36.403Z,3.43
2018-12-17T11:49:05.348Z,3.87
2018-12-17T11:51:33.557Z,3.47
2018-12-17T11:54:01.686Z,3.57
2018-12-17T11:57:00.594Z,3.70
2018-12-17T11:59:28.809Z,3.70
2018-12-17T12:01:57.042Z,3.70
2018-12-17T12:04:25.245Z,3.30
2018-12-17T12:06:53.415Z,3.23
2018-12-17T12:09:27.942Z,4.10
2018-12-17T12:11:56.069Z,3.47
2018-12-17T12:14:24.288Z,3.23
2018-12-17T12:16:52.734Z,2.97
2018-12-17T12:19:20.933Z,2.90
2018-12-17T12:21:49.103Z,3.37
2018-12-17T12:24:17.280Z,2.63
2018-12-17T12:26:45.450Z,3.70
2018-12-17T12:29:14.323Z,2.93
2018-12-17T12:31:42.511Z,3.30
2018-12-17T12:34:10.790Z,2.87
2018-12-17T12:36:39.490Z,3.33
2018-12-17T12:39:07.779Z,3.97
2018-12-17T12:41:35.932Z,3.10
2018-12-17T12:44:08.776Z,3.30
2018-12-17T12:46:34.848Z,3.47
2018-12-17T12:49:03.008Z,2.80
2018-12-17T12:51:33.123Z,3.10
2018-12-17T12:54:01.250Z,3.03
2018-12-17T12:56:29.381Z,2.77
2018-12-17T12:58:58.764Z,3.37
2018-12-17T13:01:26.955Z,3.60
2018-12-17T13:03:55.084Z,3.23
2018-12-17T13:06:24.089Z,3.70
2018-12-17T13:08:52.298Z,3.30
2018-12-17T13:11:20.561Z,3.47
2018-12-17T13:13:49.329Z,2.63
2018-12-17T13:16:17.461Z,4.13
2018-12-17T13:18:45.571Z,3.23
2018-12-17T13:21:14.444Z,3.20
2018-12-17T13:23:42.577Z,2.60
2018-12-17T13:26:10.729Z,3.00
2018-12-17T13:28:39.594Z,3.30
2018-12-17T13:31:14.473Z,2.57
2018-12-17T13:33:37.903Z,2.70
2018-12-17T13:36:06.981Z,2.53
2018-12-17T13:38:35.096Z,2.43
2018-12-17T13:41:02.687Z,3.33
2018-12-17T13:43:31.092Z,2.73
2018-12-17T13:45:59.304Z,3.37
2018-12-17T13:48:27.427Z,2.70
2018-12-17T13:50:57.804Z,3.40
2018-12-17T13:53:31.440Z,3.20
2018-12-17T13:55:59.947Z,3.60
2018-12-17T13:58:28.153Z,3.33
2018-12-17T14:00:56.321Z,3.73
2018-12-17T14:03:24.526Z,3.40
2018-12-17T14:05:52.677Z,3.90
2018-12-17T14:08:20.930Z,3.57
2018-12-17T14:10:54.443Z,3.53
2018-12-17T14:13:23.138Z,3.67
2018-12-17T14:15:51.575Z,4.03
2018-12-17T14:18:25.694Z,3.40
2018-12-17T14:20:59.498Z,4.03
2018-12-17T14:23:29.018Z,3.20
2018-12-17T14:25:57.163Z,3.73
2018-12-17T14:28:25.362Z,3.73
2018-12-17T14:30:53.572Z,4.13
2018-12-17T14:33:21.758Z,4.70
2018-12-17T14:35:55.376Z,5.47
2018-12-17T14:38:23.650Z,3.97
2018-12-17T14:40:51.915Z,4.60
2018-12-17T14:43:20.795Z,4.60
2018-12-17T14:45:48.983Z,3.97
2018-12-17T14:48:17.143Z,4.50
2018-12-17T14:50:45.377Z,4.70
2018-12-17T14:53:13.700Z,4.07
2018-12-17T14:55:41.870Z,4.87
2018-12-17T14:58:10.224Z,4.63
2018-12-17T15:00:38.633Z,4.80
2018-12-17T15:03:06.931Z,4.77
2018-12-17T15:05:35.201Z,5.30
2018-12-17T15:08:03.351Z,5.20
2018-12-17T15:10:31.998Z,6.03
2018-12-17T15:13:00.670Z,5.83
2018-12-17T15:15:28.855Z,4.83
2018-12-17T15:17:57.515Z,5.43
2018-12-17T15:20:25.718Z,5.60
2018-12-17T15:22:54.326Z,5.63
2018-12-17T15:25:26.065Z,4.63
2018-12-17T15:27:54.327Z,4.35
2018-12-17T15:30:22.601Z,3.70
2018-12-17T15:32:51.303Z,5.00
2018-12-17T15:35:19.496Z,5.83
2018-12-17T15:37:47.625Z,6.53
2018-12-17T15:40:16.252Z,6.27
2018-12-17T15:42:44.416Z,5.97
2018-12-17T15:45:12.540Z,8.90
2018-12-17T15:47:40.817Z,8.73
2018-12-17T15:50:09.331Z,6.57
2018-12-17T15:52:37.633Z,5.87
2018-12-17T15:55:05.931Z,5.57
2018-12-17T15:57:34.140Z,6.97
2018-12-17T16:00:04.055Z,6.63
2018-12-17T16:02:32.240Z,6.53
2018-12-17T16:05:00.479Z,5.30
2018-12-17T16:07:29.462Z,5.57
2018-12-17T16:09:57.696Z,4.83
2018-12-17T16:12:26.049Z,4.53
2018-12-17T16:14:54.878Z,4.77
2018-12-17T16:17:23.325Z,6.40
2018-12-17T16:19:52.199Z,5.97
2018-12-17T16:22:20.368Z,6.50
2018-12-17T16:24:48.689Z,5.77
2018-12-17T16:27:19.417Z,6.47
2018-12-17T16:29:48.024Z,7.17
2018-12-17T16:32:16.201Z,6.53
2018-12-17T16:34:46.188Z,6.83
2018-12-17T16:37:14.349Z,7.30
2018-12-17T16:39:42.688Z,7.33
2018-12-17T16:42:11.304Z,9.07
2018-12-17T16:44:39.579Z,7.93
2018-12-17T16:47:07.775Z,7.20
2018-12-17T16:49:37.068Z,9.50
2018-12-17T16:52:05.263Z,7.00
2018-12-17T16:54:34.200Z,7.80
2018-12-17T16:57:02.403Z,8.27
2018-12-17T16:59:30.567Z,7.50
2018-12-17T17:02:04.475Z,7.90
2018-12-17T17:04:30.975Z,8.43
2018-12-17T17:06:59.444Z,7.20
2018-12-17T17:09:27.761Z,8.07
2018-12-17T17:11:56.004Z,7.80
2018-12-17T17:14:24.296Z,7.03
2018-12-17T17:16:52.635Z,6.90
2018-12-17T17:19:20.816Z,6.37
2018-12-17T17:21:49.447Z,5.87
2018-12-17T17:24:18.462Z,7.80
2018-12-17T17:26:47.034Z,6.83
2018-12-17T17:29:15.283Z,6.70
2018-12-17T17:31:43.871Z,7.17
2018-12-17T17:34:12.112Z,7.87
2018-12-17T17:36:40.350Z,7.55
2018-12-17T17:39:09.151Z,8.13
2018-12-17T17:41:38.014Z,6.70
2018-12-17T17:44:07.092Z,6.63
2018-12-17T17:46:35.732Z,6.30
2018-12-17T17:49:03.914Z,6.70
2018-12-17T17:51:32.206Z,7.27
2018-12-17T17:54:01.068Z,7.20
2018-12-17T17:56:29.434Z,6.87
2018-12-17T17:58:57.834Z,6.83
2018-12-17T18:01:28.267Z,6.73
2018-12-17T18:03:56.502Z,7.57
2018-12-17T18:06:24.775Z,7.03
2018-12-17T18:08:53.015Z,7.30
2018-12-17T18:11:22.017Z,8.57
2018-12-17T18:13:50.268Z,8.23
2018-12-17T18:16:18.592Z,8.20
2018-12-17T18:18:46.787Z,7.87
2018-12-17T18:21:15.564Z,7.93
2018-12-17T18:23:44.242Z,7.65
2018-12-17T18:26:12.623Z,8.90
2018-12-17T18:28:40.825Z,7.33
2018-12-17T18:31:09.010Z,8.93
2018-12-17T18:33:37.617Z,8.87
2018-12-17T18:36:05.733Z,7.77
2018-12-17T18:38:35.214Z,8.30
2018-12-17T18:41:03.924Z,8.40
2018-12-17T18:43:32.184Z,7.73
2018-12-17T18:46:00.643Z,8.20
2018-12-17T18:48:28.825Z,7.57
2018-12-17T18:50:57.008Z,8.40
2018-12-17T18:53:25.872Z,7.30
2018-12-17T18:55:53.995Z,6.28
2018-12-17T18:58:22.144Z,7.37
2018-12-17T19:00:50.633Z,11.13
2018-12-17T19:03:18.900Z,9.00
2018-12-17T19:05:47.078Z,8.40
2018-12-17T19:08:15.580Z,7.37
2018-12-17T19:10:49.009Z,8.43
2018-12-17T19:13:17.259Z,8.37
2018-12-17T19:15:45.400Z,9.13
2018-12-17T19:18:13.658Z,8.43
2018-12-17T19:20:41.875Z,8.80
2018-12-17T19:23:10.042Z,8.17
2018-12-17T19:25:38.192Z,9.63
2018-12-17T19:28:07.263Z,9.53
2018-12-17T19:30:35.464Z,9.17
2018-12-17T19:33:03.651Z,8.10
2018-12-17T19:35:31.811Z,8.57
2018-12-17T19:37:59.956Z,7.73
2018-12-17T19:40:28.156Z,8.53
2018-12-17T19:42:56.346Z,7.80
2018-12-17T19:45:24.499Z,8.50
2018-12-17T19:47:52.623Z,8.77
2018-12-17T19:50:20.779Z,9.13
2018-12-17T19:52:49.720Z,7.47
2018-12-17T19:55:18.028Z,7.57
2018-12-17T19:57:46.156Z,8.07
2018-12-17T20:00:14.405Z,8.27
2018-12-17T20:02:46.935Z,7.87
2018-12-17T20:05:13.043Z,9.50
2018-12-17T20:07:41.242Z,8.43
2018-12-17T20:10:13.710Z,8.30
2018-12-17T20:12:41.908Z,8.50
2018-12-17T20:15:10.166Z,7.97
2018-12-17T20:17:38.404Z,7.73
2018-12-17T20:20:07.234Z,7.57
2018-12-17T20:22:35.445Z,8.50
2018-12-17T20:25:03.680Z,8.07
2018-12-17T20:27:32.135Z,8.23
2018-12-17T20:30:01.214Z,9.03
2018-12-17T20:32:29.423Z,7.93
2018-12-17T20:34:57.568Z,9.97
2018-12-17T20:37:26.054Z,9.90
2018-12-17T20:39:54.259Z,10.70
2018-12-17T20:42:22.407Z,9.20
2018-12-17T20:44:51.394Z,10.17
2018-12-17T20:47:19.552Z,9.17
2018-12-17T20:49:47.676Z,10.60
2018-12-17T20:52:15.818Z,10.33
2018-12-17T20:54:43.947Z,10.07
2018-12-17T20:57:12.098Z,9.83
2018-12-17T20:59:40.262Z,10.57
2018-12-17T21:02:08.434Z,10.40
2018-12-17T21:04:36.692Z,10.43
2018-12-17T21:07:04.811Z,9.37
2018-12-17T21:09:34.037Z,9.20
2018-12-17T21:12:02.264Z,9.40
2018-12-17T21:14:30.411Z,9.57
2018-12-17T21:16:58.607Z,9.40
2018-12-17T21:19:26.859Z,9.10
2018-12-17T21:21:55.130Z,8.93
2018-12-17T21:24:23.442Z,9.63
2018-12-17T21:26:51.591Z,9.07
2018-12-17T21:29:20.765Z,9.20
2018-12-17T21:31:48.884Z,8.50
2018-12-17T21:34:17.024Z,8.40
2018-12-17T21:36:45.228Z,8.87
2018-12-17T21:39:13.388Z,8.70
2018-12-17T21:41:42.216Z,8.17
2018-12-17T21:44:10.548Z,8.63
2018-12-17T21:46:38.734Z,8.40
2018-12-17T21:49:11.883Z,8.83
2018-12-17T21:51:39.995Z,8.03
2018-12-17T21:54:08.159Z,8.73
2018-12-17T21:56:36.335Z,8.10
2018-12-17T21:59:04.608Z,8.87
2018-12-17T22:01:32.778Z,8.80
2018-12-17T22:04:00.980Z,7.30
2018-12-17T22:06:29.158Z,7.57
2018-12-17T22:08:58.224Z,6.90
2018-12-17T22:11:26.392Z,7.40
2018-12-17T22:13:54.597Z,6.57
2018-12-17T22:16:22.738Z,6.73
2018-12-17T22:18:50.875Z,6.17
2018-12-17T22:21:18.999Z,6.00
2018-12-17T22:23:47.167Z,5.97
2018-12-17T22:26:15.428Z,6.77
2018-12-17T22:28:43.621Z,6.43
2018-12-17T22:31:11.768Z,5.00
2018-12-17T22:33:39.947Z,6.23
2018-12-17T22:36:08.503Z,4.63
2018-12-17T22:38:36.722Z,6.40
2018-12-17T22:41:04.859Z,5.03
2018-12-17T22:43:33.059Z,4.47
2018-12-17T22:46:01.541Z,4.83
2018-12-17T22:48:30.168Z,4.90
2018-12-17T22:50:58.300Z,3.93
2018-12-17T22:53:26.466Z,4.97
2018-12-17T22:55:54.640Z,4.47
2018-12-17T22:58:22.783Z,5.13
2018-12-17T23:00:51.140Z,4.50
2018-12-17T23:03:19.333Z,4.47
2018-12-17T23:05:47.533Z,4.30
2018-12-17T23:08:15.685Z,4.47
2018-12-17T23:10:55.292Z,4.07
2018-12-17T23:13:35.158Z,3.90
2018-12-17T23:16:14.587Z,3.80
2018-12-17T23:18:42.571Z,3.67
2018-12-17T23:21:10.707Z,3.60
2018-12-17T23:23:39.015Z,4.37
2018-12-17T23:26:07.223Z,4.13
2018-12-17T23:28:35.506Z,3.90
2018-12-17T23:31:05.839Z,4.70
2018-12-17T23:33:34.398Z,3.47
2018-12-17T23:36:02.777Z,4.13
2018-12-17T23:38:30.948Z,4.00
2018-12-17T23:40:59.139Z,4.30
2018-12-17T23:43:27.311Z,4.35
2018-12-17T23:45:55.471Z,4.10
2018-12-17T23:48:23.713Z,4.97
2018-12-17T23:50:51.858Z,4.27
2018-12-17T23:53:19.995Z,3.87
2018-12-17T23:55:48.465Z,4.50
2018-12-17T23:58:16.637Z,4.33
